Cape Express — HO5337 — position and weather

sailwx.info

Track history (hours):
 
Tides and Currents Weather Stations Pressure Air Temp Water Temp Dewpoint Dewpoint Depression Visibility Wind Speed Wind Dir Waves Ship Positions

Cape Express

Last reported at 2016-Jun-24 21:31 UTC. Time now 2016-Jun-27 02:24 UTC.
Position N 26°05' W 079°29'.

Length 29 m; draft 2.2 m.

Type: Cargo ship. MMSI: 370269000.

Date/timePositionNaut miles runAvg speedWind from/ knotsBaromVisibWave heightAir tempDewpointWater temp
2016-Jun-24 21:31N 26°05' W 079°29'8 8.7
2016-Jun-24 20:33N 26°05' W 079°38'9 8.6
2016-Jun-24 19:33N 26°05' W 079°48'9 9.3
2016-Jun-24 18:33N 26°05' W 079°58'8 8.1
2016-Jun-24 17:33N 26°04' W 080°07'1 0.9
2016-Jun-24 16:33N 26°04' W 080°08'0 0.0
2016-Jun-24 15:33N 26°04' W 080°08'0 0.0
2016-Jun-24 14:33N 26°04' W 080°08'0 0.0
2016-Jun-24 13:33N 26°04' W 080°08'0 0.0
2016-Jun-24 12:33N 26°04' W 080°08'0 0.0
2016-Jun-24 11:32N 26°04' W 080°08'4 4.1
2016-Jun-24 10:33N 26°05' W 080°03'10 9.9
2016-Jun-24 09:33N 25°60' W 079°54'1110.6
2016-Jun-24 08:33N 25°55' W 079°43'7 0.3
2016-Jun-23 05:33N 25°56' W 079°51'7 7.1
2016-Jun-23 04:33N 25°59' W 079°57'9 9.4
2016-Jun-23 03:33N 26°06' W 080°06'3 2.7
2016-Jun-23 02:33N 26°04' W 080°08'0 0.0
2016-Jun-23 01:32N 26°04' W 080°08'0 0.0
2016-Jun-23 00:33N 26°04' W 080°08'0 0.0
2016-Jun-22 23:33N 26°04' W 080°08'0 0.0
2016-Jun-22 22:33N 26°04' W 080°08'0 0.0
2016-Jun-22 21:33N 26°04' W 080°08'0 0.0
2016-Jun-22 20:33N 26°04' W 080°08'0 0.0
2016-Jun-22 19:33N 26°04' W 080°08'0 0.0
2016-Jun-22 18:33N 26°04' W 080°08'0 0.0
2016-Jun-22 17:33N 26°04' W 080°08'0 0.0
2016-Jun-22 16:33N 26°04' W 080°08'0 0.0
2016-Jun-22 15:33N 26°04' W 080°08'0 0.0
2016-Jun-22 14:33N 26°04' W 080°08'0 0.0
2016-Jun-22 13:33N 26°04' W 080°08'0 0.1
2016-Jun-22 12:33N 26°04' W 080°08'5 5.3
2016-Jun-22 11:33N 26°05' W 080°02'1110.5
2016-Jun-22 10:33N 26°02' W 079°51'1010.4
2016-Jun-22 09:33N 25°59' W 079°40'  
2016-Jun-19 07:31N 25°57' W 079°30'8 8.6
2016-Jun-19 06:33N 25°59' W 079°39'8 8.1
2016-Jun-19 05:33N 26°01' W 079°48'8 7.9
2016-Jun-19 04:33N 26°03' W 079°56'9 9.4
2016-Jun-19 03:33N 26°06' W 080°07'2 2.3
2016-Jun-19 02:33N 26°04' W 080°08'0 0.0
2016-Jun-19 01:33N 26°04' W 080°08'0 0.0
2016-Jun-19 00:33N 26°04' W 080°08'0 0.0
2016-Jun-18 23:33N 26°04' W 080°08'0 0.0
2016-Jun-18 22:33N 26°04' W 080°08'0 0.0
2016-Jun-18 21:33N 26°04' W 080°08'0 0.0
2016-Jun-18 20:33N 26°04' W 080°08'0 0.0
2016-Jun-18 19:33N 26°04' W 080°08'0 0.0
2016-Jun-18 18:33N 26°04' W 080°08'0 0.0
2016-Jun-18 17:33N 26°04' W 080°08'0 0.0
2016-Jun-18 16:33N 26°04' W 080°08'0 0.0
2016-Jun-18 15:33N 26°04' W 080°08'0 0.0
2016-Jun-18 14:33N 26°04' W 080°08'0 0.0
2016-Jun-18 13:31N 26°04' W 080°08'0 0.0
2016-Jun-18 12:33N 26°04' W 080°08'3 3.3
2016-Jun-18 11:33N 26°05' W 080°05'10 9.6
2016-Jun-18 10:33N 26°01' W 079°55'10 9.8
2016-Jun-18 09:33N 25°56' W 079°46'10 9.6
2016-Jun-18 08:33N 25°51' W 079°36'26 1.0
2016-Jun-17 06:09N 26°17' W 079°30'711.9
2016-Jun-17 05:33N 26°14' W 079°37'1212.0
2016-Jun-17 04:33N 26°09' W 079°49'1111.1
2016-Jun-17 03:33N 26°06' W 080°01'6 6.4
2016-Jun-17 02:33N 26°04' W 080°08'0 0.0
2016-Jun-17 01:33N 26°04' W 080°08'0 0.0
2016-Jun-17 00:33N 26°04' W 080°08'0 0.0
2016-Jun-16 23:31N 26°04' W 080°08'0 0.2
2016-Jun-16 22:33N 26°04' W 080°08'6 6.5
2016-Jun-16 21:33N 26°07' W 080°01'9 9.2
2016-Jun-16 20:33N 26°09' W 079°51'8 7.7
2016-Jun-16 19:33N 26°12' W 079°43'7 6.9
2016-Jun-16 18:33N 26°15' W 079°36'3 0.2
2016-Jun-16 04:33N 26°14' W 079°33'1010.3
2016-Jun-16 03:33N 26°11' W 079°44'1110.9
2016-Jun-16 02:33N 26°07' W 079°55'1010.1
2016-Jun-16 01:33N 26°06' W 080°06'2 2.4
2016-Jun-16 00:33N 26°04' W 080°08'0 0.0
2016-Jun-15 23:33N 26°04' W 080°08'0 0.0
2016-Jun-15 22:33N 26°04' W 080°08'0 0.0
2016-Jun-15 21:33N 26°04' W 080°08'0 0.1
2016-Jun-15 20:33N 26°04' W 080°08'7 7.4
2016-Jun-15 19:33N 26°07' W 080°00'9 9.5
2016-Jun-15 18:33N 26°10' W 079°50'9 8.6
2016-Jun-15 17:33N 26°12' W 079°41'9 9.1
2016-Jun-15 16:33N 26°12' W 079°31'8 0.7
2016-Jun-15 04:33N 26°14' W 079°40'1111.0
2016-Jun-15 03:33N 26°10' W 079°51'1110.6
2016-Jun-15 02:33N 26°06' W 080°02'6 5.5
2016-Jun-15 01:33N 26°04' W 080°08'0 0.0
2016-Jun-15 00:33N 26°04' W 080°08'0 0.0
2016-Jun-14 23:33N 26°04' W 080°08'0 0.0
2016-Jun-14 22:33N 26°04' W 080°08'0 0.0
2016-Jun-14 21:33N 26°04' W 080°08'  
Track history (hours):
 
Tides and Currents Weather Stations Pressure Air Temp Water Temp Dewpoint Dewpoint Depression Visibility Wind Speed Wind Dir Waves Ship Positions

Cape Express

Last reported at 2016-Jun-24 21:31 UTC. Time now 2016-Jun-27 02:24 UTC.
Position N 26°05' W 079°29'.

Length 29 m; draft 2.2 m.

Type: Cargo ship. MMSI: 370269000.

Date/timePositionNaut miles runAvg speedWind from/ knotsBaromVisibWave heightAir tempDewpointWater temp
2016-Jun-24 21:31N 26°05' W 079°29'8 8.7
2016-Jun-24 20:33N 26°05' W 079°38'9 8.6
2016-Jun-24 19:33N 26°05' W 079°48'9 9.3
2016-Jun-24 18:33N 26°05' W 079°58'8 8.1
2016-Jun-24 17:33N 26°04' W 080°07'1 0.9
2016-Jun-24 16:33N 26°04' W 080°08'0 0.0
2016-Jun-24 15:33N 26°04' W 080°08'0 0.0
2016-Jun-24 14:33N 26°04' W 080°08'0 0.0
2016-Jun-24 13:33N 26°04' W 080°08'0 0.0
2016-Jun-24 12:33N 26°04' W 080°08'0 0.0
2016-Jun-24 11:32N 26°04' W 080°08'4 4.1
2016-Jun-24 10:33N 26°05' W 080°03'10 9.9
2016-Jun-24 09:33N 25°60' W 079°54'1110.6
2016-Jun-24 08:33N 25°55' W 079°43'7 0.3
2016-Jun-23 05:33N 25°56' W 079°51'7 7.1
2016-Jun-23 04:33N 25°59' W 079°57'9 9.4
2016-Jun-23 03:33N 26°06' W 080°06'3 2.7
2016-Jun-23 02:33N 26°04' W 080°08'0 0.0
2016-Jun-23 01:32N 26°04' W 080°08'0 0.0
2016-Jun-23 00:33N 26°04' W 080°08'0 0.0
2016-Jun-22 23:33N 26°04' W 080°08'0 0.0
2016-Jun-22 22:33N 26°04' W 080°08'0 0.0
2016-Jun-22 21:33N 26°04' W 080°08'0 0.0
2016-Jun-22 20:33N 26°04' W 080°08'0 0.0
2016-Jun-22 19:33N 26°04' W 080°08'0 0.0
2016-Jun-22 18:33N 26°04' W 080°08'0 0.0
2016-Jun-22 17:33N 26°04' W 080°08'0 0.0
2016-Jun-22 16:33N 26°04' W 080°08'0 0.0
2016-Jun-22 15:33N 26°04' W 080°08'0 0.0
2016-Jun-22 14:33N 26°04' W 080°08'0 0.0
2016-Jun-22 13:33N 26°04' W 080°08'0 0.1
2016-Jun-22 12:33N 26°04' W 080°08'5 5.3
2016-Jun-22 11:33N 26°05' W 080°02'1110.5
2016-Jun-22 10:33N 26°02' W 079°51'1010.4
2016-Jun-22 09:33N 25°59' W 079°40'  
2016-Jun-19 07:31N 25°57' W 079°30'8 8.6
2016-Jun-19 06:33N 25°59' W 079°39'8 8.1
2016-Jun-19 05:33N 26°01' W 079°48'8 7.9
2016-Jun-19 04:33N 26°03' W 079°56'9 9.4
2016-Jun-19 03:33N 26°06' W 080°07'2 2.3
2016-Jun-19 02:33N 26°04' W 080°08'0 0.0
2016-Jun-19 01:33N 26°04' W 080°08'0 0.0
2016-Jun-19 00:33N 26°04' W 080°08'0 0.0
2016-Jun-18 23:33N 26°04' W 080°08'0 0.0
2016-Jun-18 22:33N 26°04' W 080°08'0 0.0
2016-Jun-18 21:33N 26°04' W 080°08'0 0.0
2016-Jun-18 20:33N 26°04' W 080°08'0 0.0
2016-Jun-18 19:33N 26°04' W 080°08'0 0.0
2016-Jun-18 18:33N 26°04' W 080°08'0 0.0
2016-Jun-18 17:33N 26°04' W 080°08'0 0.0
2016-Jun-18 16:33N 26°04' W 080°08'0 0.0
2016-Jun-18 15:33N 26°04' W 080°08'0 0.0
2016-Jun-18 14:33N 26°04' W 080°08'0 0.0
2016-Jun-18 13:31N 26°04' W 080°08'0 0.0
2016-Jun-18 12:33N 26°04' W 080°08'3 3.3
2016-Jun-18 11:33N 26°05' W 080°05'10 9.6
2016-Jun-18 10:33N 26°01' W 079°55'10 9.8
2016-Jun-18 09:33N 25°56' W 079°46'10 9.6
2016-Jun-18 08:33N 25°51' W 079°36'26 1.0
2016-Jun-17 06:09N 26°17' W 079°30'711.9
2016-Jun-17 05:33N 26°14' W 079°37'1212.0
2016-Jun-17 04:33N 26°09' W 079°49'1111.1
2016-Jun-17 03:33N 26°06' W 080°01'6 6.4
2016-Jun-17 02:33N 26°04' W 080°08'0 0.0
2016-Jun-17 01:33N 26°04' W 080°08'0 0.0
2016-Jun-17 00:33N 26°04' W 080°08'0 0.0
2016-Jun-16 23:31N 26°04' W 080°08'0 0.2
2016-Jun-16 22:33N 26°04' W 080°08'6 6.5
2016-Jun-16 21:33N 26°07' W 080°01'9 9.2
2016-Jun-16 20:33N 26°09' W 079°51'8 7.7
2016-Jun-16 19:33N 26°12' W 079°43'7 6.9
2016-Jun-16 18:33N 26°15' W 079°36'3 0.2
2016-Jun-16 04:33N 26°14' W 079°33'1010.3
2016-Jun-16 03:33N 26°11' W 079°44'1110.9
2016-Jun-16 02:33N 26°07' W 079°55'1010.1
2016-Jun-16 01:33N 26°06' W 080°06'2 2.4
2016-Jun-16 00:33N 26°04' W 080°08'0 0.0
2016-Jun-15 23:33N 26°04' W 080°08'0 0.0
2016-Jun-15 22:33N 26°04' W 080°08'0 0.0
2016-Jun-15 21:33N 26°04' W 080°08'0 0.1
2016-Jun-15 20:33N 26°04' W 080°08'7 7.4
2016-Jun-15 19:33N 26°07' W 080°00'9 9.5
2016-Jun-15 18:33N 26°10' W 079°50'9 8.6
2016-Jun-15 17:33N 26°12' W 079°41'9 9.1
2016-Jun-15 16:33N 26°12' W 079°31'8 0.7
2016-Jun-15 04:33N 26°14' W 079°40'1111.0
2016-Jun-15 03:33N 26°10' W 079°51'1110.6
2016-Jun-15 02:33N 26°06' W 080°02'6 5.5
2016-Jun-15 01:33N 26°04' W 080°08'0 0.0
2016-Jun-15 00:33N 26°04' W 080°08'0 0.0
2016-Jun-14 23:33N 26°04' W 080°08'0 0.0
2016-Jun-14 22:33N 26°04' W 080°08'0 0.0
2016-Jun-14 21:33N 26°04' W 080°08'  

Dump ship's entire track history